Time;durP1;ratioP1;P1;durP2;ratioP2;P2;SDS_P1;SDS_P2;PMS_P1;PMS_P2;Temp;Humidity;BMP_temperature;BMP_pressure;BME280_temperature;BME280_humidity;BME280_pressure;Samples;Min_cycle;Max_cycle;Signal;HPM_P1;HPM_P2
2021/01/20 00:00:39;;;;;;;0.43;0.30;;;4.10;99.90;;;;;;4989899;28;20067;-73
2021/01/20 00:03:05;;;;;;;0.50;0.30;;;4.00;99.90;;;;;;4986307;28;20094;-73
2021/01/20 00:05:30;;;;;;;1.15;0.30;;;4.10;99.90;;;;;;4989981;28;20124;-74
2021/01/20 00:07:56;;;;;;;0.70;0.70;;;4.10;99.90;;;;;;4977114;28;20573;-73
2021/01/20 00:10:21;;;;;;;0.55;0.38;;;4.20;99.90;;;;;;4975088;28;20716;-73
2021/01/20 00:12:48;;;;;;;0.70;0.30;;;4.20;99.90;;;;;;4972544;28;20182;-73
2021/01/20 00:15:23;;;;;;;0.93;0.40;;;4.20;99.90;;;;;;4972283;28;20079;-74
2021/01/20 00:17:49;;;;;;;0.55;0.20;;;4.20;99.90;;;;;;4972303;28;20105;-73
2021/01/20 00:20:16;;;;;;;0.82;0.35;;;4.20;99.90;;;;;;4995630;28;20074;-73
2021/01/20 00:22:42;;;;;;;0.90;0.35;;;4.30;99.90;;;;;;5002192;28;20102;-74
2021/01/20 00:25:09;;;;;;;0.55;0.20;;;4.20;99.90;;;;;;4974027;28;20079;-73
2021/01/20 00:27:35;;;;;;;0.47;0.22;;;4.20;99.90;;;;;;4972351;28;20067;-74
2021/01/20 00:30:01;;;;;;;0.63;0.10;;;4.40;99.90;;;;;;4975726;28;20505;-74
2021/01/20 00:32:26;;;;;;;0.45;0.35;;;4.50;99.90;;;;;;4979642;28;20119;-74
2021/01/20 00:34:52;;;;;;;2.40;0.20;;;4.60;99.90;;;;;;4973775;28;20112;-73
2021/01/20 00:37:17;;;;;;;0.73;0.40;;;4.50;99.90;;;;;;4980390;28;20516;-73
2021/01/20 00:39:43;;;;;;;0.38;0.20;;;4.50;99.90;;;;;;4996239;28;20175;-74
2021/01/20 00:42:09;;;;;;;0.88;0.40;;;4.40;99.90;;;;;;4972121;28;20523;-73
2021/01/20 00:44:34;;;;;;;1.38;0.50;;;4.50;99.90;;;;;;4970989;28;20583;-74
2021/01/20 00:47:00;;;;;;;0.20;0.20;;;4.50;99.90;;;;;;4987508;28;20083;-74
2021/01/20 00:49:25;;;;;;;0.40;0.28;;;4.50;99.90;;;;;;4980282;28;20075;-74
2021/01/20 00:51:51;;;;;;;0.50;0.30;;;4.50;99.90;;;;;;4973078;28;20118;-74
2021/01/20 00:54:16;;;;;;;0.52;0.30;;;4.50;99.90;;;;;;4970449;28;20145;-74
2021/01/20 00:56:42;;;;;;;1.13;0.43;;;4.40;99.90;;;;;;4989988;28;20075;-73
2021/01/20 00:59:08;;;;;;;0.40;0.20;;;4.40;99.90;;;;;;4989579;28;20087;-74
2021/01/20 01:01:34;;;;;;;0.32;0.30;;;4.40;99.90;;;;;;4971010;28;20076;-74
2021/01/20 01:04:00;;;;;;;0.25;0.10;;;4.40;99.90;;;;;;4994330;28;20560;-74
2021/01/20 01:06:25;;;;;;;0.90;0.20;;;4.30;99.90;;;;;;4985620;28;20075;-74
2021/01/20 01:08:51;;;;;;;0.57;0.40;;;4.40;99.90;;;;;;4976578;28;20546;-74
2021/01/20 01:11:16;;;;;;;0.40;0.30;;;4.30;99.90;;;;;;4986278;28;20593;-75
2021/01/20 01:13:44;;;;;;;0.75;0.30;;;4.00;99.90;;;;;;4972758;28;20591;-75
2021/01/20 01:16:10;;;;;;;0.75;0.30;;;3.90;99.90;;;;;;4971042;28;20090;-75
2021/01/20 01:18:36;;;;;;;1.83;0.57;;;3.80;99.90;;;;;;4973616;28;20091;-74
2021/01/20 01:21:01;;;;;;;0.50;0.30;;;3.80;99.90;;;;;;4983951;28;20134;-74
2021/01/20 01:23:27;;;;;;;0.40;0.20;;;3.70;99.90;;;;;;4977799;28;20137;-74
2021/01/20 01:25:53;;;;;;;0.77;0.30;;;3.50;99.90;;;;;;4981545;28;20642;-74
2021/01/20 01:28:19;;;;;;;4.57;0.30;;;3.50;99.90;;;;;;4983122;28;20070;-75
2021/01/20 01:30:44;;;;;;;0.60;0.35;;;3.20;99.90;;;;;;4971810;28;20095;-75
2021/01/20 01:33:10;;;;;;;0.35;0.20;;;3.20;99.90;;;;;;4970822;28;20099;-75
2021/01/20 01:35:36;;;;;;;0.77;0.43;;;3.00;99.90;;;;;;4970358;28;20083;-74
2021/01/20 01:38:02;;;;;;;0.60;0.47;;;2.90;99.90;;;;;;4970448;28;20099;-75
2021/01/20 01:40:27;;;;;;;0.75;0.30;;;2.90;99.90;;;;;;4970551;28;20162;-75
2021/01/20 01:42:53;;;;;;;1.05;0.35;;;2.80;99.90;;;;;;4969914;28;20098;-75
2021/01/20 01:45:19;;;;;;;0.60;0.50;;;2.80;99.90;;;;;;4978895;28;20134;-75
2021/01/20 01:47:44;;;;;;;0.65;0.40;;;2.80;99.90;;;;;;4975828;28;20158;-74
2021/01/20 01:50:12;;;;;;;0.20;0.13;;;2.90;99.90;;;;;;4970839;28;20075;-74
2021/01/20 01:52:38;;;;;;;0.80;0.30;;;3.20;99.90;;;;;;4970050;28;20099;-74
2021/01/20 01:55:06;;;;;;;0.55;0.30;;;3.20;99.90;;;;;;4982217;28;20083;-75
2021/01/20 01:57:31;;;;;;;0.50;0.30;;;3.20;99.90;;;;;;4973156;28;20106;-75
2021/01/20 01:59:57;;;;;;;0.82;0.40;;;3.40;99.90;;;;;;4973916;28;20075;-75
2021/01/20 02:02:22;;;;;;;0.60;0.22;;;3.50;99.90;;;;;;4975829;28;20146;-75
2021/01/20 02:04:48;;;;;;;0.25;0.20;;;3.70;99.90;;;;;;4989239;28;20079;-75
2021/01/20 02:07:13;;;;;;;0.32;0.30;;;3.80;99.90;;;;;;4974463;28;20079;-75
2021/01/20 02:09:40;;;;;;;0.57;0.30;;;3.80;99.90;;;;;;4972248;28;20170;-74
2021/01/20 02:12:30;;;;;;;0.80;0.30;;;3.80;99.90;;;;;;4974090;28;20187;-75
2021/01/20 02:15:10;;;;;;;1.55;0.30;;;4.00;99.90;;;;;;4974498;28;20106;-75
2021/01/20 02:17:50;;;;;;;0.80;0.40;;;3.80;99.90;;;;;;4973892;28;20099;-75
2021/01/20 02:20:43;;;;;;;0.30;0.30;;;3.80;99.90;;;;;;4974614;28;20177;-75
2021/01/20 02:23:15;;;;;;;0.35;0.20;;;3.80;99.90;;;;;;4999662;28;20103;-74
2021/01/20 02:26:01;;;;;;;0.20;0.10;;;3.80;99.90;;;;;;4989579;28;20080;-75
2021/01/20 02:29:04;;;;;;;0.32;0.20;;;3.80;99.90;;;;;;4973395;28;20087;-74
2021/01/20 02:31:30;;;;;;;0.30;0.22;;;3.80;99.90;;;;;;4963604;28;20440;-75
2021/01/20 02:34:01;;;;;;;0.35;0.30;;;3.90;99.90;;;;;;4972362;28;20186;-75
2021/01/20 02:36:29;;;;;;;0.47;0.13;;;4.00;99.90;;;;;;4979791;28;20110;-74
2021/01/20 02:38:55;;;;;;;0.57;0.10;;;4.10;99.90;;;;;;4972013;28;20118;-74
2021/01/20 02:41:29;;;;;;;2.35;0.35;;;3.90;99.90;;;;;;4976075;28;20094;-74
2021/01/20 02:44:04;;;;;;;0.47;0.30;;;4.00;99.90;;;;;;4982340;28;20189;-74
2021/01/20 02:46:31;;;;;;;0.50;0.20;;;4.00;99.90;;;;;;4983900;28;20087;-75
2021/01/20 02:48:59;;;;;;;0.20;0.13;;;3.90;99.90;;;;;;4976909;28;20086;-75
2021/01/20 02:51:56;;;;;;;0.38;0.28;;;3.80;99.90;;;;;;4969597;28;20079;-75
2021/01/20 02:54:23;;;;;;;1.48;0.63;;;3.70;99.90;;;;;;4918741;28;20099;-75
2021/01/20 02:56:50;;;;;;;3.05;1.00;;;3.60;99.90;;;;;;4990249;28;20090;-74
2021/01/20 02:59:19;;;;;;;3.10;0.77;;;3.60;99.90;;;;;;4973972;28;20190;-74
2021/01/20 03:01:50;;;;;;;2.72;1.00;;;3.50;99.90;;;;;;4978295;28;20105;-74
2021/01/20 03:04:18;;;;;;;4.38;0.80;;;3.40;99.90;;;;;;4985036;28;20075;-74
2021/01/20 03:06:46;;;;;;;2.10;1.23;;;3.40;99.90;;;;;;4984420;28;20078;-74
2021/01/20 03:09:14;;;;;;;1.60;0.60;;;3.40;99.90;;;;;;4980653;28;20101;-75
2021/01/20 03:11:50;;;;;;;1.23;0.75;;;3.30;99.90;;;;;;4982049;28;20161;-74
2021/01/20 03:14:18;;;;;;;0.82;0.60;;;3.30;99.90;;;;;;4985048;28;20553;-74
2021/01/20 03:16:44;;;;;;;0.95;0.55;;;3.20;99.90;;;;;;4986079;28;20083;-74
2021/01/20 03:19:10;;;;;;;0.65;0.20;;;3.10;99.90;;;;;;4993378;28;20094;-74
2021/01/20 03:21:35;;;;;;;1.10;0.30;;;3.20;99.90;;;;;;4987129;28;20475;-74
2021/01/20 03:24:01;;;;;;;0.50;0.30;;;3.20;99.90;;;;;;4973165;28;20186;-74
2021/01/20 03:26:26;;;;;;;0.35;0.30;;;3.20;99.90;;;;;;4973444;28;20162;-74
2021/01/20 03:28:52;;;;;;;1.45;0.30;;;3.30;99.90;;;;;;4973037;28;20086;-74
2021/01/20 03:31:17;;;;;;;1.35;0.40;;;3.20;99.90;;;;;;4972884;28;20396;-74
2021/01/20 03:33:43;;;;;;;2.35;0.82;;;3.10;99.90;;;;;;4978632;28;20129;-74
2021/01/20 03:36:09;;;;;;;0.40;0.30;;;3.10;99.90;;;;;;4976061;28;20082;-74
2021/01/20 03:38:34;;;;;;;0.68;0.38;;;3.20;99.90;;;;;;4973956;28;20543;-74
2021/01/20 03:41:00;;;;;;;0.55;0.38;;;3.30;99.90;;;;;;4986374;28;20085;-74
2021/01/20 03:43:25;;;;;;;0.50;0.30;;;3.30;99.90;;;;;;4985989;28;20095;-74
2021/01/20 03:45:51;;;;;;;0.63;0.30;;;3.30;99.90;;;;;;4972772;28;20080;-74
2021/01/20 03:48:16;;;;;;;0.15;0.10;;;3.30;99.90;;;;;;4988327;28;20086;-74
2021/01/20 03:50:42;;;;;;;0.60;0.20;;;3.20;99.90;;;;;;4995343;28;20071;-74
2021/01/20 03:53:07;;;;;;;0.50;0.20;;;3.20;99.90;;;;;;4987099;28;20095;-74
2021/01/20 03:55:33;;;;;;;0.20;0.20;;;3.20;99.90;;;;;;4975969;28;20079;-74
2021/01/20 03:57:58;;;;;;;0.20;0.20;;;3.10;99.90;;;;;;4999407;28;20091;-74
2021/01/20 04:00:24;;;;;;;0.30;0.20;;;3.20;99.90;;;;;;4973912;28;20075;-74
2021/01/20 04:02:49;;;;;;;1.33;0.65;;;3.10;99.90;;;;;;4986822;28;20091;-74
2021/01/20 04:05:15;;;;;;;0.43;0.28;;;3.00;99.90;;;;;;4983411;28;20486;-75
2021/01/20 04:07:41;;;;;;;0.47;0.20;;;2.80;99.90;;;;;;4977348;28;20757;-74
2021/01/20 04:10:07;;;;;;;0.73;0.30;;;2.70;99.90;;;;;;4972298;28;20130;-74
2021/01/20 04:12:37;;;;;;;0.30;0.20;;;2.80;99.90;;;;;;4986430;28;20099;-74
2021/01/20 04:15:04;;;;;;;0.22;0.10;;;2.90;99.90;;;;;;4970777;28;20083;-74
2021/01/20 04:17:30;;;;;;;0.55;0.30;;;2.70;99.90;;;;;;4982342;28;20078;-74
2021/01/20 04:19:55;;;;;;;0.80;0.30;;;2.70;99.90;;;;;;5007630;28;20162;-74
2021/01/20 04:22:21;;;;;;;0.32;0.30;;;2.50;99.90;;;;;;4988204;28;20156;-75
2021/01/20 04:24:46;;;;;;;1.25;0.40;;;2.40;99.90;;;;;;4986955;28;20082;-74
2021/01/20 04:27:12;;;;;;;1.73;0.32;;;2.40;99.90;;;;;;4986776;28;20080;-74
2021/01/20 04:29:37;;;;;;;0.73;0.32;;;2.30;99.90;;;;;;4972873;28;20103;-74
2021/01/20 04:32:03;;;;;;;0.85;0.40;;;2.30;99.90;;;;;;4985131;28;20107;-74
2021/01/20 04:34:29;;;;;;;1.98;0.47;;;2.30;99.90;;;;;;4987801;28;20131;-74
2021/01/20 04:36:54;;;;;;;0.60;0.30;;;2.30;99.90;;;;;;4970777;28;20075;-73
2021/01/20 04:39:20;;;;;;;0.25;0.20;;;2.30;99.90;;;;;;4975400;28;20091;-74
2021/01/20 04:41:45;;;;;;;0.70;0.38;;;2.10;99.90;;;;;;4986336;28;20086;-74
2021/01/20 04:44:11;;;;;;;0.52;0.28;;;2.10;99.90;;;;;;4975458;28;20079;-75
2021/01/20 04:46:37;;;;;;;1.73;0.47;;;2.00;99.90;;;;;;4972266;28;20074;-74
2021/01/20 04:49:06;;;;;;;0.50;0.30;;;2.10;99.90;;;;;;4972653;28;20067;-74
2021/01/20 04:51:36;;;;;;;0.30;0.30;;;2.00;99.90;;;;;;4980919;28;20079;-74
2021/01/20 04:54:05;;;;;;;0.68;0.28;;;2.00;99.90;;;;;;4981592;28;20119;-74
2021/01/20 04:56:30;;;;;;;0.85;0.40;;;2.00;99.90;;;;;;4971988;28;20166;-74
2021/01/20 04:58:56;;;;;;;0.82;0.40;;;2.00;99.90;;;;;;4971966;28;20170;-74
2021/01/20 05:01:23;;;;;;;0.95;0.70;;;2.00;99.90;;;;;;4971733;28;20178;-74
2021/01/20 05:03:49;;;;;;;0.93;0.40;;;2.00;99.90;;;;;;4986374;28;20121;-74
2021/01/20 05:06:15;;;;;;;0.85;0.68;;;1.90;99.90;;;;;;4971751;28;20146;-74
2021/01/20 05:08:41;;;;;;;0.68;0.40;;;1.90;99.90;;;;;;4971345;28;20086;-73
2021/01/20 05:11:06;;;;;;;1.85;0.50;;;1.90;99.90;;;;;;4988650;28;20079;-74
2021/01/20 05:13:32;;;;;;;0.73;0.60;;;1.90;99.90;;;;;;4971617;28;20098;-74
2021/01/20 05:15:58;;;;;;;1.20;0.63;;;1.90;99.90;;;;;;4989485;28;20231;-74
2021/01/20 05:18:24;;;;;;;1.00;0.70;;;1.80;99.90;;;;;;4989902;28;20265;-75
2021/01/20 05:20:50;;;;;;;0.98;0.50;;;1.80;99.90;;;;;;4982947;28;20242;-74
2021/01/20 05:23:16;;;;;;;1.55;1.27;;;1.90;99.90;;;;;;4975087;28;20742;-74
2021/01/20 05:25:44;;;;;;;0.75;0.50;;;1.90;99.90;;;;;;4987903;28;20074;-74
2021/01/20 05:28:24;;;;;;;0.88;0.55;;;1.80;99.90;;;;;;4971408;28;20161;-74
2021/01/20 05:30:53;;;;;;;1.60;0.95;;;1.90;99.90;;;;;;4975885;28;20146;-73
2021/01/20 05:33:22;;;;;;;1.20;0.68;;;1.90;99.90;;;;;;4980336;28;20115;-74
2021/01/20 05:36:12;;;;;;;1.95;0.88;;;1.90;99.90;;;;;;4979298;28;20475;-74
2021/01/20 05:38:42;;;;;;;1.60;0.95;;;1.90;99.90;;;;;;4973005;28;20127;-73
2021/01/20 05:41:37;;;;;;;1.30;0.80;;;1.80;99.90;;;;;;4985003;28;20086;-74
2021/01/20 05:44:13;;;;;;;3.25;0.95;;;1.80;99.90;;;;;;4986198;28;20103;-73
2021/01/20 05:46:42;;;;;;;2.70;1.20;;;1.80;99.90;;;;;;4971070;28;20447;-74
2021/01/20 05:49:24;;;;;;;1.35;0.95;;;1.80;99.90;;;;;;4979908;28;20110;-75
2021/01/20 05:51:52;;;;;;;1.83;0.90;;;1.80;99.90;;;;;;4981163;28;20105;-83
2021/01/20 05:54:36;;;;;;;1.15;0.90;;;1.70;99.90;;;;;;4969003;28;20090;-80
2021/01/20 05:57:31;;;;;;;1.52;0.52;;;1.60;99.90;;;;;;4981023;28;20106;-81
2021/01/20 06:00:13;;;;;;;0.70;0.60;;;1.60;99.90;;;;;;4965583;28;20110;-78
2021/01/20 06:02:41;;;;;;;2.38;1.67;;;1.60;99.90;;;;;;4971254;28;20095;-74
2021/01/20 06:05:08;;;;;;;0.98;0.77;;;1.60;99.90;;;;;;4988051;28;20214;-74
2021/01/20 06:07:37;;;;;;;1.73;0.85;;;1.70;99.90;;;;;;4969662;28;20060;-74
2021/01/20 06:10:02;;;;;;;1.85;0.95;;;1.60;99.90;;;;;;4978731;28;20075;-75
2021/01/20 06:12:28;;;;;;;2.00;1.08;;;1.70;99.90;;;;;;4972464;28;20451;-74
2021/01/20 06:14:53;;;;;;;1.75;1.00;;;1.60;99.90;;;;;;4988298;28;20075;-74
2021/01/20 06:17:47;;;;;;;1.42;0.90;;;1.60;99.90;;;;;;4936332;28;20349;-75
2021/01/20 06:20:16;;;;;;;1.50;0.90;;;1.70;99.90;;;;;;4975204;28;20079;-73
2021/01/20 06:22:48;;;;;;;2.50;1.15;;;1.80;99.90;;;;;;4978651;28;20102;-72
2021/01/20 06:25:17;;;;;;;1.08;0.88;;;1.90;99.90;;;;;;4973261;28;20262;-75
2021/01/20 06:27:54;;;;;;;1.33;1.00;;;1.90;99.90;;;;;;4981203;28;20071;-73
2021/01/20 06:30:27;;;;;;;1.05;0.93;;;1.90;99.90;;;;;;4968579;28;20079;-74
2021/01/20 06:32:54;;;;;;;1.48;1.08;;;1.90;99.90;;;;;;4967967;28;20475;-75
2021/01/20 06:35:19;;;;;;;1.45;0.88;;;2.00;99.90;;;;;;4982433;28;20083;-74
2021/01/20 06:37:48;;;;;;;2.28;1.10;;;2.00;99.90;;;;;;4974001;28;20153;-74
2021/01/20 06:40:22;;;;;;;1.95;1.20;;;2.00;99.90;;;;;;4976494;28;20161;-75
2021/01/20 06:42:49;;;;;;;3.97;1.42;;;2.00;99.90;;;;;;4984934;28;20094;-76
2021/01/20 06:45:19;;;;;;;2.35;1.38;;;2.00;99.90;;;;;;4970363;28;20122;-76
2021/01/20 06:48:00;;;;;;;0.80;0.80;;;2.00;99.90;;;;;;4972891;28;20079;-76
2021/01/20 06:50:25;;;;;;;1.40;1.02;;;2.00;99.90;;;;;;4978847;28;20187;-81
2021/01/20 06:53:04;;;;;;;1.90;1.05;;;1.90;99.90;;;;;;4985441;28;20190;-81
2021/01/20 06:55:39;;;;;;;1.90;0.90;;;1.90;99.90;;;;;;4969649;28;20543;-73
2021/01/20 06:58:26;;;;;;;1.10;1.02;;;2.00;99.90;;;;;;4977011;28;20566;-75
2021/01/20 07:01:00;;;;;;;1.17;0.80;;;1.90;99.90;;;;;;4983631;28;20080;-75
2021/01/20 07:03:40;;;;;;;1.08;0.70;;;2.00;99.90;;;;;;4981093;28;20141;-75
2021/01/20 07:06:34;;;;;;;1.55;0.90;;;2.00;99.90;;;;;;4973001;28;20083;-75
2021/01/20 07:09:00;;;;;;;2.13;1.10;;;2.00;99.90;;;;;;4973126;28;20072;-74
2021/01/20 07:11:26;;;;;;;1.73;0.98;;;2.10;99.90;;;;;;4971944;28;20083;-73
2021/01/20 07:13:52;;;;;;;2.00;1.00;;;2.10;99.90;;;;;;4982762;28;20122;-75
2021/01/20 07:16:18;;;;;;;1.40;1.02;;;2.20;99.90;;;;;;4986071;28;20075;-72
2021/01/20 07:18:48;;;;;;;3.42;1.13;;;2.20;99.90;;;;;;4976437;28;20842;-72
2021/01/20 07:21:14;;;;;;;2.63;1.30;;;2.20;99.90;;;;;;4976601;28;20078;-74
2021/01/20 07:23:40;;;;;;;2.40;1.45;;;2.20;99.90;;;;;;4977138;28;20498;-75
2021/01/20 07:26:06;;;;;;;1.95;1.52;;;2.10;99.90;;;;;;4982059;28;20531;-74
2021/01/20 07:28:32;;;;;;;3.30;1.40;;;2.10;99.90;;;;;;4971666;28;20079;-75
2021/01/20 07:31:10;;;;;;;1.88;1.00;;;2.10;99.90;;;;;;4986797;28;20083;-76
2021/01/20 07:33:36;;;;;;;2.65;1.27;;;2.20;99.90;;;;;;4986110;28;20199;-75
2021/01/20 07:36:30;;;;;;;2.15;1.00;;;2.10;99.90;;;;;;4984635;28;20082;-75
2021/01/20 07:38:56;;;;;;;1.98;1.20;;;2.20;99.90;;;;;;4969561;28;20456;-75
2021/01/20 07:41:25;;;;;;;3.08;1.48;;;2.30;99.90;;;;;;4969069;28;20101;-73
2021/01/20 07:44:05;;;;;;;2.28;1.30;;;2.30;99.90;;;;;;4971199;28;20088;-75
2021/01/20 07:46:30;;;;;;;1.60;1.42;;;2.40;99.90;;;;;;4970414;28;20162;-74
2021/01/20 07:48:56;;;;;;;2.47;1.13;;;2.40;99.90;;;;;;4992162;28;20214;-74
2021/01/20 07:51:23;;;;;;;2.60;1.30;;;2.50;99.90;;;;;;4987222;28;20459;-73
2021/01/20 07:54:02;;;;;;;2.22;1.40;;;2.50;99.90;;;;;;4974219;28;20107;-73
2021/01/20 07:56:29;;;;;;;2.15;1.15;;;2.60;99.90;;;;;;4986435;28;20153;-73
2021/01/20 07:58:55;;;;;;;3.58;1.58;;;2.60;99.90;;;;;;4976927;28;20490;-73
2021/01/20 08:01:28;;;;;;;1.73;0.90;;;2.70;99.90;;;;;;4979945;28;20073;-73
2021/01/20 08:03:55;;;;;;;2.08;1.15;;;2.80;99.90;;;;;;4984056;28;20145;-73
2021/01/20 08:06:21;;;;;;;1.75;1.17;;;2.80;99.90;;;;;;4980727;28;20431;-73
2021/01/20 08:08:55;;;;;;;2.97;1.17;;;2.80;99.90;;;;;;4973623;28;20075;-73
2021/01/20 08:11:24;;;;;;;1.85;1.10;;;2.80;99.90;;;;;;4983977;28;20416;-71
2021/01/20 08:13:50;;;;;;;1.88;1.08;;;2.80;99.90;;;;;;4977494;28;20114;-74
2021/01/20 08:16:17;;;;;;;1.63;0.95;;;2.90;99.90;;;;;;4976603;28;20150;-72
2021/01/20 08:18:45;;;;;;;5.15;1.58;;;2.90;99.90;;;;;;4981386;28;20091;-72
2021/01/20 08:21:11;;;;;;;3.50;1.30;;;2.90;99.90;;;;;;4979135;28;20844;-73
2021/01/20 08:23:51;;;;;;;2.95;1.70;;;2.90;99.90;;;;;;4979186;28;20097;-73
2021/01/20 08:26:28;;;;;;;1.75;1.23;;;2.90;99.90;;;;;;4981994;28;21096;-74
2021/01/20 08:29:05;;;;;;;3.33;1.48;;;3.00;99.90;;;;;;5009279;28;20084;-75
2021/01/20 08:31:31;;;;;;;2.33;1.63;;;3.00;99.90;;;;;;4989559;28;20071;-73
2021/01/20 08:34:19;;;;;;;2.08;1.42;;;3.10;99.90;;;;;;4983267;28;20626;-74
2021/01/20 08:37:00;;;;;;;1.67;1.25;;;3.20;99.90;;;;;;4982787;28;20075;-74
2021/01/20 08:39:26;;;;;;;2.20;1.10;;;3.20;99.90;;;;;;4976435;28;20539;-75
2021/01/20 08:42:11;;;;;;;1.95;1.17;;;3.30;99.90;;;;;;4972130;28;20114;-73
2021/01/20 08:44:36;;;;;;;1.80;1.30;;;3.30;99.90;;;;;;4983094;28;20090;-74
2021/01/20 08:47:02;;;;;;;1.35;0.70;;;3.40;99.90;;;;;;4984476;28;20102;-74
2021/01/20 08:49:28;;;;;;;1.92;0.90;;;3.50;99.90;;;;;;4948689;28;20079;-73
2021/01/20 08:51:57;;;;;;;1.58;1.13;;;3.50;99.90;;;;;;4972338;28;20730;-74
2021/01/20 08:54:25;;;;;;;2.75;1.33;;;3.70;99.80;;;;;;4973879;28;20091;-73
2021/01/20 08:56:51;;;;;;;2.20;1.08;;;3.80;98.90;;;;;;4989482;28;20074;-73
2021/01/20 08:59:17;;;;;;;2.13;0.93;;;3.90;99.10;;;;;;4974837;28;20302;-74
2021/01/20 09:01:43;;;;;;;1.13;0.80;;;3.90;98.40;;;;;;4984481;28;20527;-73
2021/01/20 09:04:08;;;;;;;1.77;1.17;;;4.00;97.80;;;;;;4977397;28;20082;-73
2021/01/20 09:06:34;;;;;;;1.50;1.05;;;4.00;97.60;;;;;;4970551;28;20075;-73
2021/01/20 09:08:59;;;;;;;1.58;1.00;;;4.20;96.30;;;;;;4977522;28;20590;-73
2021/01/20 09:11:25;;;;;;;2.00;1.20;;;4.20;97.40;;;;;;4974848;28;20082;-74
2021/01/20 09:13:54;;;;;;;1.55;1.10;;;4.30;97.00;;;;;;4983029;28;20102;-74
2021/01/20 09:16:27;;;;;;;2.33;1.00;;;4.20;96.30;;;;;;4989116;28;20424;-73
2021/01/20 09:18:53;;;;;;;2.35;1.20;;;4.30;97.90;;;;;;4980785;28;20114;-73
2021/01/20 09:21:18;;;;;;;1.00;0.90;;;4.30;96.90;;;;;;4979756;28;20075;-73
2021/01/20 09:23:44;;;;;;;1.27;1.00;;;4.40;95.50;;;;;;4981193;28;20662;-73
2021/01/20 09:26:10;;;;;;;2.13;1.42;;;4.50;95.70;;;;;;4987857;28;20546;-74
2021/01/20 09:28:36;;;;;;;1.63;1.27;;;4.60;95.10;;;;;;4974881;28;20111;-73
2021/01/20 09:31:02;;;;;;;2.40;1.10;;;4.60;96.00;;;;;;4970291;28;20090;-73
2021/01/20 09:33:28;;;;;;;2.83;1.17;;;4.60;95.70;;;;;;4986743;28;20099;-73
2021/01/20 09:35:53;;;;;;;1.67;0.90;;;4.70;96.50;;;;;;4980255;28;20110;-74
2021/01/20 09:38:21;;;;;;;2.13;1.23;;;4.70;95.40;;;;;;4969947;28;20190;-75
2021/01/20 09:40:47;;;;;;;1.77;1.00;;;4.70;96.30;;;;;;4969806;28;20090;-73
2021/01/20 09:43:13;;;;;;;2.78;0.98;;;4.80;96.00;;;;;;4975362;28;20137;-75
2021/01/20 09:45:38;;;;;;;1.80;1.10;;;4.80;95.50;;;;;;4972196;28;20087;-73
2021/01/20 09:48:08;;;;;;;1.55;0.93;;;4.90;96.10;;;;;;4972334;28;20085;-74
2021/01/20 09:50:34;;;;;;;1.70;0.98;;;4.90;95.30;;;;;;4983787;28;20085;-73
2021/01/20 09:53:04;;;;;;;1.40;0.90;;;4.90;94.90;;;;;;4976891;28;20091;-73
2021/01/20 09:55:30;;;;;;;1.85;1.08;;;4.90;95.80;;;;;;4972928;28;20076;-74
2021/01/20 09:57:56;;;;;;;3.92;1.45;;;4.90;95.30;;;;;;4977698;28;20208;-74
2021/01/20 10:00:21;;;;;;;1.98;1.33;;;4.90;94.20;;;;;;4968863;28;20559;-73
2021/01/20 10:02:47;;;;;;;1.65;1.02;;;4.90;95.60;;;;;;4970083;28;20123;-74
2021/01/20 10:05:13;;;;;;;1.80;1.20;;;4.90;95.30;;;;;;4972268;28;20074;-73
2021/01/20 10:07:40;;;;;;;3.47;1.17;;;4.90;95.90;;;;;;4969645;28;20114;-74
2021/01/20 10:10:10;;;;;;;1.60;1.08;;;4.80;95.80;;;;;;4970233;28;20168;-74
2021/01/20 10:12:37;;;;;;;2.15;1.58;;;4.90;94.60;;;;;;4968883;28;20663;-75
2021/01/20 10:15:07;;;;;;;2.38;1.45;;;4.90;94.90;;;;;;4968245;28;20076;-73
2021/01/20 10:17:32;;;;;;;2.20;1.33;;;4.90;95.30;;;;;;4984838;28;20088;-73
2021/01/20 10:19:58;;;;;;;2.22;1.00;;;5.00;94.10;;;;;;4983918;28;20078;-73
2021/01/20 10:22:24;;;;;;;1.98;1.23;;;5.00;94.30;;;;;;4970195;28;20091;-74
2021/01/20 10:24:50;;;;;;;2.33;1.45;;;5.10;94.80;;;;;;4971982;28;20494;-73
2021/01/20 10:27:15;;;;;;;1.20;0.95;;;5.10;94.50;;;;;;4974177;28;20126;-74
2021/01/20 10:29:41;;;;;;;2.63;1.42;;;5.10;94.20;;;;;;4976598;28;20494;-76
2021/01/20 10:32:07;;;;;;;1.55;1.02;;;5.20;93.50;;;;;;4979972;28;20109;-73
2021/01/20 10:34:33;;;;;;;1.50;1.20;;;5.30;92.10;;;;;;4978309;28;20609;-72
2021/01/20 10:36:58;;;;;;;2.17;1.10;;;5.40;92.50;;;;;;4984124;28;20551;-73
2021/01/20 10:39:24;;;;;;;3.58;1.13;;;5.40;93.30;;;;;;4979253;28;20094;-74
2021/01/20 10:41:52;;;;;;;1.75;0.77;;;5.40;92.60;;;;;;4978825;28;20528;-75
2021/01/20 10:44:18;;;;;;;1.83;1.30;;;5.50;94.00;;;;;;4987489;28;20090;-74
2021/01/20 10:46:43;;;;;;;1.90;1.10;;;5.40;93.00;;;;;;4977952;28;20079;-75
2021/01/20 10:49:09;;;;;;;1.50;1.08;;;5.50;91.50;;;;;;4975785;28;20102;-73
2021/01/20 10:51:34;;;;;;;4.18;1.00;;;5.40;92.60;;;;;;4985586;28;20075;-74
2021/01/20 10:54:04;;;;;;;1.23;0.80;;;5.60;91.20;;;;;;4976996;28;20099;-73
2021/01/20 10:56:30;;;;;;;4.22;1.70;;;5.50;93.40;;;;;;4962789;28;20106;-73
2021/01/20 10:58:57;;;;;;;1.30;0.95;;;5.40;93.40;;;;;;4977121;28;20109;-73
2021/01/20 11:01:23;;;;;;;1.67;1.17;;;5.60;92.10;;;;;;4999081;28;20094;-74
2021/01/20 11:03:49;;;;;;;1.98;1.00;;;5.60;92.60;;;;;;4983871;28;20088;-73
2021/01/20 11:06:14;;;;;;;1.40;1.00;;;5.70;91.00;;;;;;4970932;28;20094;-73
2021/01/20 11:08:40;;;;;;;1.58;1.10;;;5.80;92.80;;;;;;4977322;28;20079;-74
2021/01/20 11:11:06;;;;;;;1.65;1.23;;;5.80;91.80;;;;;;4972816;28;20118;-73
2021/01/20 11:13:33;;;;;;;2.55;1.02;;;5.80;91.60;;;;;;4982186;28;20118;-73
2021/01/20 11:15:59;;;;;;;3.53;2.35;;;5.80;90.50;;;;;;4972925;28;20162;-74
2021/01/20 11:18:25;;;;;;;9.10;5.05;;;5.90;91.40;;;;;;4980188;28;20562;-74
2021/01/20 11:20:51;;;;;;;4.05;2.08;;;5.90;91.20;;;;;;4986374;28;20074;-74
2021/01/20 11:23:17;;;;;;;5.75;2.90;;;5.90;91.50;;;;;;4973231;28;20126;-75
2021/01/20 11:25:47;;;;;;;2.60;1.02;;;5.90;91.90;;;;;;4977508;28;20068;-74
2021/01/20 11:28:14;;;;;;;2.08;1.33;;;6.10;91.90;;;;;;4974226;28;20167;-74
2021/01/20 11:30:40;;;;;;;4.05;1.85;;;6.20;90.50;;;;;;4978543;28;20526;-73
2021/01/20 11:33:06;;;;;;;2.17;1.13;;;5.90;92.00;;;;;;4973765;28;20171;-74
2021/01/20 11:35:32;;;;;;;3.53;1.13;;;6.10;91.10;;;;;;4994791;28;20075;-75
2021/01/20 11:37:58;;;;;;;1.27;1.02;;;6.00;91.30;;;;;;4971144;28;20091;-73
2021/01/20 11:40:24;;;;;;;2.38;1.17;;;6.00;92.50;;;;;;4987603;28;20151;-73
2021/01/20 11:42:57;;;;;;;2.05;1.17;;;6.30;86.20;;;;;;4984040;28;20158;-72
2021/01/20 11:45:30;;;;;;;1.65;0.82;;;6.30;89.20;;;;;;4986240;28;20075;-73
2021/01/20 11:47:56;;;;;;;1.65;1.00;;;6.50;87.30;;;;;;4971667;28;20470;-73
2021/01/20 11:50:23;;;;;;;3.25;2.50;;;6.20;91.30;;;;;;4979773;28;20111;-73
2021/01/20 11:52:50;;;;;;;3.58;1.45;;;6.40;90.00;;;;;;4975857;28;20174;-73
2021/01/20 11:55:16;;;;;;;2.78;1.75;;;6.60;80.50;;;;;;4977602;28;20555;-73
2021/01/20 11:57:41;;;;;;;2.75;1.67;;;6.70;82.80;;;;;;4978271;28;20082;-73
2021/01/20 12:00:09;;;;;;;2.50;1.50;;;6.70;81.50;;;;;;4982034;28;20555;-73
2021/01/20 12:02:35;;;;;;;1.25;1.00;;;6.80;80.50;;;;;;4974330;28;20079;-73
2021/01/20 12:05:01;;;;;;;1.42;1.00;;;6.90;78.30;;;;;;4983899;28;20424;-73
2021/01/20 12:07:26;;;;;;;2.42;1.25;;;6.90;78.00;;;;;;4977161;28;20227;-73
2021/01/20 12:09:52;;;;;;;1.48;0.80;;;7.00;76.00;;;;;;4976286;28;20079;-73
2021/01/20 12:12:18;;;;;;;1.38;0.73;;;7.00;75.30;;;;;;4965920;28;20086;-73
2021/01/20 12:14:43;;;;;;;2.00;1.20;;;7.20;71.60;;;;;;4973329;28;20067;-73
2021/01/20 12:17:09;;;;;;;1.23;1.00;;;7.20;76.00;;;;;;4980576;28;20075;-73
2021/01/20 12:19:34;;;;;;;1.95;1.20;;;7.10;74.90;;;;;;4977487;28;20098;-74
2021/01/20 12:22:00;;;;;;;1.83;1.08;;;7.30;70.60;;;;;;4982659;28;20137;-73
2021/01/20 12:24:25;;;;;;;1.50;1.05;;;7.30;72.40;;;;;;4977501;28;20180;-73
2021/01/20 12:26:53;;;;;;;1.60;1.10;;;7.30;75.40;;;;;;4972844;28;20091;-73
2021/01/20 12:29:19;;;;;;;2.92;1.10;;;7.20;76.90;;;;;;4973737;28;20075;-73
2021/01/20 12:31:44;;;;;;;1.40;0.73;;;7.10;79.60;;;;;;4972128;28;20071;-73
2021/01/20 12:34:10;;;;;;;0.98;0.85;;;7.20;77.60;;;;;;4969847;28;20428;-73
2021/01/20 12:36:36;;;;;;;3.17;1.70;;;7.30;73.30;;;;;;4970585;28;20086;-73
2021/01/20 12:39:02;;;;;;;3.75;1.08;;;7.30;73.60;;;;;;4969949;28;20094;-73
2021/01/20 12:41:28;;;;;;;1.88;1.20;;;7.40;71.90;;;;;;4973729;28;20484;-73
2021/01/20 12:43:53;;;;;;;3.40;1.20;;;7.40;72.50;;;;;;4972991;28;20091;-73
2021/01/20 12:46:19;;;;;;;3.17;0.73;;;7.30;76.10;;;;;;4978088;28;20141;-74
2021/01/20 12:48:44;;;;;;;3.25;0.90;;;7.40;74.70;;;;;;4983956;28;20082;-73
2021/01/20 12:51:10;;;;;;;1.98;1.00;;;7.40;74.10;;;;;;4988996;28;20086;-74
2021/01/20 12:53:35;;;;;;;1.23;0.80;;;7.40;74.80;;;;;;4977723;28;20099;-77
2021/01/20 12:56:01;;;;;;;1.63;0.82;;;7.40;71.20;;;;;;4970765;28;20101;-76
2021/01/20 12:58:27;;;;;;;3.00;0.90;;;7.40;73.70;;;;;;4972309;28;20150;-73
2021/01/20 13:00:52;;;;;;;1.48;0.88;;;7.30;76.70;;;;;;4976085;28;20161;-74
2021/01/20 13:03:18;;;;;;;3.17;1.10;;;7.20;81.40;;;;;;4974004;28;20099;-74